sensor_id;sensor_type;location;lat;lon;timestamp;temperature;humidity
38936;DHT22;25541;47.458;9.644;2022-10-17T02:47:54;10.70;99.90
38936;DHT22;25541;47.458;9.644;2022-10-17T02:50:27;10.80;99.90
38936;DHT22;25541;47.458;9.644;2022-10-17T02:53:10;10.90;99.90
38936;DHT22;25541;47.458;9.644;2022-10-17T02:55:47;10.80;99.90
38936;DHT22;25541;47.458;9.644;2022-10-17T02:58:19;10.70;99.90
38936;DHT22;25541;47.458;9.644;2022-10-17T03:00:45;10.80;99.90
38936;DHT22;25541;47.458;9.644;2022-10-17T03:03:22;10.70;99.90
38936;DHT22;25541;47.458;9.644;2022-10-17T03:05:48;10.70;99.90
38936;DHT22;25541;47.458;9.644;2022-10-17T03:08:14;10.70;99.90
38936;DHT22;25541;47.458;9.644;2022-10-17T03:10:40;10.70;99.90
38936;DHT22;25541;47.458;9.644;2022-10-17T03:13:06;10.70;99.90
38936;DHT22;25541;47.458;9.644;2022-10-17T03:15:31;10.60;99.90
38936;DHT22;25541;47.458;9.644;2022-10-17T03:17:57;10.60;99.90
38936;DHT22;25541;47.458;9.644;2022-10-17T03:20:22;10.60;99.90
38936;DHT22;25541;47.458;9.644;2022-10-17T03:22:48;10.60;99.90
38936;DHT22;25541;47.458;9.644;2022-10-17T03:25:14;10.70;99.90
38936;DHT22;25541;47.458;9.644;2022-10-17T03:27:39;10.70;99.90
38936;DHT22;25541;47.458;9.644;2022-10-17T03:30:06;10.70;99.90
38936;DHT22;25541;47.458;9.644;2022-10-17T03:32:34;10.70;99.90
38936;DHT22;25541;47.458;9.644;2022-10-17T03:35:00;10.70;99.90
38936;DHT22;25541;47.458;9.644;2022-10-17T03:37:26;10.70;99.90
38936;DHT22;25541;47.458;9.644;2022-10-17T03:39:52;10.60;99.90
38936;DHT22;25541;47.458;9.644;2022-10-17T03:42:17;10.70;99.90
38936;DHT22;25541;47.458;9.644;2022-10-17T03:44:43;10.70;99.90
38936;DHT22;25541;47.458;9.644;2022-10-17T03:47:09;10.70;99.90
38936;DHT22;25541;47.458;9.644;2022-10-17T03:49:35;10.60;99.90
38936;DHT22;25541;47.458;9.644;2022-10-17T03:52:00;10.50;99.90
38936;DHT22;25541;47.458;9.644;2022-10-17T03:54:26;10.50;99.90
38936;DHT22;25541;47.458;9.644;2022-10-17T03:56:52;10.50;99.90
38936;DHT22;25541;47.458;9.644;2022-10-17T03:59:17;10.50;99.90
38936;DHT22;25541;47.458;9.644;2022-10-17T04:01:43;10.50;99.90
38936;DHT22;25541;47.458;9.644;2022-10-17T04:04:09;10.60;99.90
38936;DHT22;25541;47.458;9.644;2022-10-17T04:06:36;10.50;99.90
38936;DHT22;25541;47.458;9.644;2022-10-17T04:09:02;10.50;99.90
38936;DHT22;25541;47.458;9.644;2022-10-17T04:11:28;10.60;99.90
38936;DHT22;25541;47.458;9.644;2022-10-17T04:13:55;10.50;99.90
38936;DHT22;25541;47.458;9.644;2022-10-17T04:16:22;10.50;99.90
38936;DHT22;25541;47.458;9.644;2022-10-17T04:18:52;10.40;99.90
38936;DHT22;25541;47.458;9.644;2022-10-17T04:21:18;10.40;99.90
38936;DHT22;25541;47.458;9.644;2022-10-17T04:23:44;10.40;99.90
38936;DHT22;25541;47.458;9.644;2022-10-17T04:26:10;10.40;99.90
38936;DHT22;25541;47.458;9.644;2022-10-17T04:28:35;10.30;99.90
38936;DHT22;25541;47.458;9.644;2022-10-17T04:31:03;10.40;99.90
38936;DHT22;25541;47.458;9.644;2022-10-17T04:33:31;10.40;99.90
38936;DHT22;25541;47.458;9.644;2022-10-17T04:36:01;10.30;99.90
38936;DHT22;25541;47.458;9.644;2022-10-17T04:38:28;10.30;99.90
38936;DHT22;25541;47.458;9.644;2022-10-17T04:40:58;10.30;99.90
38936;DHT22;25541;47.458;9.644;2022-10-17T04:43:30;10.30;99.90
38936;DHT22;25541;47.458;9.644;2022-10-17T04:45:57;10.20;99.90
38936;DHT22;25541;47.458;9.644;2022-10-17T04:48:23;10.20;99.90
38936;DHT22;25541;47.458;9.644;2022-10-17T04:50:56;10.20;99.90
38936;DHT22;25541;47.458;9.644;2022-10-17T04:53:23;10.20;99.90
38936;DHT22;25541;47.458;9.644;2022-10-17T04:55:48;10.30;99.90
38936;DHT22;25541;47.458;9.644;2022-10-17T04:58:14;10.20;99.90
38936;DHT22;25541;47.458;9.644;2022-10-17T05:00:41;10.20;99.90
38936;DHT22;25541;47.458;9.644;2022-10-17T05:03:06;10.20;99.90
38936;DHT22;25541;47.458;9.644;2022-10-17T05:05:32;10.20;99.90
38936;DHT22;25541;47.458;9.644;2022-10-17T05:07:58;10.20;99.90
38936;DHT22;25541;47.458;9.644;2022-10-17T05:10:24;10.10;99.90
38936;DHT22;25541;47.458;9.644;2022-10-17T05:12:50;10.10;99.90
38936;DHT22;25541;47.458;9.644;2022-10-17T05:15:16;10.10;99.90
38936;DHT22;25541;47.458;9.644;2022-10-17T05:17:42;10.10;99.90
38936;DHT22;25541;47.458;9.644;2022-10-17T05:20:08;10.00;99.90
38936;DHT22;25541;47.458;9.644;2022-10-17T05:22:34;10.10;99.90
38936;DHT22;25541;47.458;9.644;2022-10-17T05:24:59;10.10;99.90
38936;DHT22;25541;47.458;9.644;2022-10-17T05:27:25;10.20;99.90
38936;DHT22;25541;47.458;9.644;2022-10-17T05:29:51;10.30;99.90
38936;DHT22;25541;47.458;9.644;2022-10-17T05:32:16;10.20;99.90
38936;DHT22;25541;47.458;9.644;2022-10-17T05:34:42;10.10;99.90
38936;DHT22;25541;47.458;9.644;2022-10-17T05:37:08;10.10;99.90
38936;DHT22;25541;47.458;9.644;2022-10-17T05:39:33;10.20;99.90
38936;DHT22;25541;47.458;9.644;2022-10-17T05:41:59;10.10;99.90
38936;DHT22;25541;47.458;9.644;2022-10-17T05:44:25;10.10;99.90
38936;DHT22;25541;47.458;9.644;2022-10-17T05:46:50;10.10;99.90
38936;DHT22;25541;47.458;9.644;2022-10-17T05:49:16;10.20;99.90
38936;DHT22;25541;47.458;9.644;2022-10-17T05:51:42;10.20;99.90
38936;DHT22;25541;47.458;9.644;2022-10-17T05:54:08;10.30;99.90
38936;DHT22;25541;47.458;9.644;2022-10-17T05:56:34;10.30;99.90
38936;DHT22;25541;47.458;9.644;2022-10-17T05:59:00;10.30;99.90
38936;DHT22;25541;47.458;9.644;2022-10-17T06:01:26;10.40;99.90
38936;DHT22;25541;47.458;9.644;2022-10-17T06:03:51;10.50;99.90
38936;DHT22;25541;47.458;9.644;2022-10-17T06:06:17;10.50;99.90
38936;DHT22;25541;47.458;9.644;2022-10-17T06:08:44;10.50;99.90
38936;DHT22;25541;47.458;9.644;2022-10-17T06:11:11;10.60;99.90
38936;DHT22;25541;47.458;9.644;2022-10-17T06:13:37;11.00;99.90
38936;DHT22;25541;47.458;9.644;2022-10-17T06:16:04;11.70;99.90
38936;DHT22;25541;47.458;9.644;2022-10-17T06:18:30;12.50;99.90
38936;DHT22;25541;47.458;9.644;2022-10-17T06:21:07;12.90;99.90
38936;DHT22;25541;47.458;9.644;2022-10-17T06:23:33;13.40;99.90
38936;DHT22;25541;47.458;9.644;2022-10-17T06:26:00;14.30;99.90
38936;DHT22;25541;47.458;9.644;2022-10-17T06:28:25;15.20;99.90
38936;DHT22;25541;47.458;9.644;2022-10-17T06:30:51;16.00;97.40
38936;DHT22;25541;47.458;9.644;2022-10-17T06:33:17;16.40;97.10
38936;DHT22;25541;47.458;9.644;2022-10-17T06:35:43;17.00;91.20
38936;DHT22;25541;47.458;9.644;2022-10-17T06:38:08;17.90;90.50
38936;DHT22;25541;47.458;9.644;2022-10-17T06:40:34;17.60;87.50
38936;DHT22;25541;47.458;9.644;2022-10-17T06:43:00;17.70;89.80
38936;DHT22;25541;47.458;9.644;2022-10-17T06:45:25;17.10;86.90
38936;DHT22;25541;47.458;9.644;2022-10-17T06:47:51;17.70;85.00
38936;DHT22;25541;47.458;9.644;2022-10-17T06:50:17;17.70;87.40
38936;DHT22;25541;47.458;9.644;2022-10-17T06:52:43;17.70;85.40
38936;DHT22;25541;47.458;9.644;2022-10-17T06:55:08;18.40;83.90
38936;DHT22;25541;47.458;9.644;2022-10-17T06:57:34;20.40;77.10
38936;DHT22;25541;47.458;9.644;2022-10-17T07:00:00;22.30;70.20
38936;DHT22;25541;47.458;9.644;2022-10-17T07:02:25;23.50;64.60
38936;DHT22;25541;47.458;9.644;2022-10-17T07:04:51;24.30;60.80
38936;DHT22;25541;47.458;9.644;2022-10-17T07:07:17;25.00;60.80
38936;DHT22;25541;47.458;9.644;2022-10-17T07:09:42;25.60;59.00
38936;DHT22;25541;47.458;9.644;2022-10-17T07:12:08;26.10;56.70
38936;DHT22;25541;47.458;9.644;2022-10-17T07:14:36;27.60;51.90
38936;DHT22;25541;47.458;9.644;2022-10-17T07:17:02;27.00;52.20
38936;DHT22;25541;47.458;9.644;2022-10-17T07:19:28;27.30;52.60
38936;DHT22;25541;47.458;9.644;2022-10-17T07:21:54;28.10;51.40
38936;DHT22;25541;47.458;9.644;2022-10-17T07:24:19;29.10;50.20
38936;DHT22;25541;47.458;9.644;2022-10-17T07:26:45;30.10;49.50
38936;DHT22;25541;47.458;9.644;2022-10-17T07:29:11;30.40;47.10
38936;DHT22;25541;47.458;9.644;2022-10-17T07:31:37;31.20;46.50
38936;DHT22;25541;47.458;9.644;2022-10-17T07:34:03;31.30;45.60
38936;DHT22;25541;47.458;9.644;2022-10-17T07:36:28;31.50;45.10
38936;DHT22;25541;47.458;9.644;2022-10-17T07:38:54;32.20;44.30
38936;DHT22;25541;47.458;9.644;2022-10-17T07:41:20;32.90;42.90
38936;DHT22;25541;47.458;9.644;2022-10-17T07:43:46;33.40;42.90
38936;DHT22;25541;47.458;9.644;2022-10-17T07:46:12;33.60;42.70
38936;DHT22;25541;47.458;9.644;2022-10-17T07:48:38;34.40;42.80
38936;DHT22;25541;47.458;9.644;2022-10-17T07:51:06;35.00;42.00
38936;DHT22;25541;47.458;9.644;2022-10-17T07:53:35;34.50;41.60
38936;DHT22;25541;47.458;9.644;2022-10-17T07:56:04;35.00;41.90
38936;DHT22;25541;47.458;9.644;2022-10-17T07:58:30;34.00;42.00
38936;DHT22;25541;47.458;9.644;2022-10-17T08:01:00;32.90;43.30
38936;DHT22;25541;47.458;9.644;2022-10-17T08:03:26;31.90;45.70
38936;DHT22;25541;47.458;9.644;2022-10-17T08:05:56;30.90;46.60
38936;DHT22;25541;47.458;9.644;2022-10-17T08:08:22;30.60;46.70
38936;DHT22;25541;47.458;9.644;2022-10-17T08:10:47;31.30;46.90
38936;DHT22;25541;47.458;9.644;2022-10-17T08:13:13;32.10;45.30
38936;DHT22;25541;47.458;9.644;2022-10-17T08:15:39;33.20;44.90
38936;DHT22;25541;47.458;9.644;2022-10-17T08:18:05;34.10;43.10
38936;DHT22;25541;47.458;9.644;2022-10-17T08:20:30;35.70;42.00
38936;DHT22;25541;47.458;9.644;2022-10-17T08:22:56;36.90;40.20
38936;DHT22;25541;47.458;9.644;2022-10-17T08:25:22;35.20;42.30
38936;DHT22;25541;47.458;9.644;2022-10-17T08:27:48;32.30;44.60
38936;DHT22;25541;47.458;9.644;2022-10-17T08:30:14;29.20;48.80
38936;DHT22;25541;47.458;9.644;2022-10-17T08:32:40;26.80;53.00
38936;DHT22;25541;47.458;9.644;2022-10-17T08:35:06;25.10;56.90
38936;DHT22;25541;47.458;9.644;2022-10-17T08:37:32;24.00;60.20
38936;DHT22;25541;47.458;9.644;2022-10-17T08:39:58;22.90;63.40
38936;DHT22;25541;47.458;9.644;2022-10-17T08:45:25;22.90;64.20
38936;DHT22;25541;47.458;9.644;2022-10-17T08:47:59;22.90;64.80
38936;DHT22;25541;47.458;9.644;2022-10-17T08:50:35;22.90;64.10
38936;DHT22;25541;47.458;9.644;2022-10-17T08:53:10;22.50;65.70
38936;DHT22;25541;47.458;9.644;2022-10-17T08:55:44;21.80;68.80
38936;DHT22;25541;47.458;9.644;2022-10-17T09:00:49;21.30;69.70
38936;DHT22;25541;47.458;9.644;2022-10-17T09:06:09;21.10;71.00
38936;DHT22;25541;47.458;9.644;2022-10-17T09:11:35;21.60;69.30
38936;DHT22;25541;47.458;9.644;2022-10-17T09:19:32;22.60;67.20
38936;DHT22;25541;47.458;9.644;2022-10-17T09:22:05;24.80;64.00
38936;DHT22;25541;47.458;9.644;2022-10-17T09:24:55;26.70;57.10
38936;DHT22;25541;47.458;9.644;2022-10-17T09:33:00;32.20;48.90
38936;DHT22;25541;47.458;9.644;2022-10-17T09:35:27;34.70;44.20
38936;DHT22;25541;47.458;9.644;2022-10-17T09:37:54;36.50;43.90
38936;DHT22;25541;47.458;9.644;2022-10-17T09:40:25;37.00;40.80
38936;DHT22;25541;47.458;9.644;2022-10-17T09:42:51;37.80;38.70
38936;DHT22;25541;47.458;9.644;2022-10-17T09:45:20;36.70;40.40
38936;DHT22;25541;47.458;9.644;2022-10-17T09:50:35;37.70;38.90
38936;DHT22;25541;47.458;9.644;2022-10-17T09:53:14;36.30;41.10
38936;DHT22;25541;47.458;9.644;2022-10-17T09:55:53;35.80;41.50
38936;DHT22;25541;47.458;9.644;2022-10-17T09:58:20;37.30;40.00
38936;DHT22;25541;47.458;9.644;2022-10-17T10:00:47;37.60;39.60
38936;DHT22;25541;47.458;9.644;2022-10-17T10:03:22;37.80;39.00
38936;DHT22;25541;47.458;9.644;2022-10-17T10:08:35;37.10;39.20
38936;DHT22;25541;47.458;9.644;2022-10-17T10:11:07;36.00;40.10
38936;DHT22;25541;47.458;9.644;2022-10-17T10:13:34;36.60;39.60
38936;DHT22;25541;47.458;9.644;2022-10-17T10:16:21;36.10;40.10
38936;DHT22;25541;47.458;9.644;2022-10-17T10:18:49;34.50;41.00
38936;DHT22;25541;47.458;9.644;2022-10-17T10:24:01;29.90;48.10
38936;DHT22;25541;47.458;9.644;2022-10-17T10:26:48;28.30;50.60
38936;DHT22;25541;47.458;9.644;2022-10-17T10:29:32;26.60;54.00
38936;DHT22;25541;47.458;9.644;2022-10-17T10:32:17;25.30;58.10
38936;DHT22;25541;47.458;9.644;2022-10-17T10:34:54;23.60;61.00
38936;DHT22;25541;47.458;9.644;2022-10-17T10:37:27;22.80;64.50
38936;DHT22;25541;47.458;9.644;2022-10-17T10:39:58;22.20;67.70
38936;DHT22;25541;47.458;9.644;2022-10-17T10:42:34;21.60;68.80
38936;DHT22;25541;47.458;9.644;2022-10-17T10:45:17;20.90;71.80
38936;DHT22;25541;47.458;9.644;2022-10-17T10:50:24;20.40;73.40
38936;DHT22;25541;47.458;9.644;2022-10-17T10:53:24;20.40;72.00
38936;DHT22;25541;47.458;9.644;2022-10-17T10:56:13;20.30;72.80
38936;DHT22;25541;47.458;9.644;2022-10-17T10:58:52;20.40;70.80
38936;DHT22;25541;47.458;9.644;2022-10-17T11:01:27;20.10;73.60
38936;DHT22;25541;47.458;9.644;2022-10-17T11:06:41;20.10;72.00
38936;DHT22;25541;47.458;9.644;2022-10-17T11:09:44;20.10;72.70
38936;DHT22;25541;47.458;9.644;2022-10-17T11:12:35;20.00;71.20
38936;DHT22;25541;47.458;9.644;2022-10-17T11:15:17;20.10;72.60
38936;DHT22;25541;47.458;9.644;2022-10-17T11:17:51;20.00;73.90
38936;DHT22;25541;47.458;9.644;2022-10-17T11:22:59;19.80;73.40
38936;DHT22;25541;47.458;9.644;2022-10-17T11:25:37;19.70;75.00
38936;DHT22;25541;47.458;9.644;2022-10-17T11:28:15;19.50;75.80
38936;DHT22;25541;47.458;9.644;2022-10-17T11:30:46;19.50;74.20
38936;DHT22;25541;47.458;9.644;2022-10-17T11:33:40;19.50;74.10
38936;DHT22;25541;47.458;9.644;2022-10-17T11:36:09;19.80;73.60
38936;DHT22;25541;47.458;9.644;2022-10-17T11:38:39;19.90;76.00
38936;DHT22;25541;47.458;9.644;2022-10-17T11:41:12;20.00;72.40
38936;DHT22;25541;47.458;9.644;2022-10-17T11:44:28;20.10;73.80
38936;DHT22;25541;47.458;9.644;2022-10-17T11:46:33;20.00;75.20
38936;DHT22;25541;47.458;9.644;2022-10-17T11:49:10;19.80;73.20
38936;DHT22;25541;47.458;9.644;2022-10-17T11:51:59;19.70;74.40
38936;DHT22;25541;47.458;9.644;2022-10-17T11:54:35;19.90;74.50
38936;DHT22;25541;47.458;9.644;2022-10-17T12:00:37;20.00;73.60
38936;DHT22;25541;47.458;9.644;2022-10-17T12:13:51;19.80;78.00
38936;DHT22;25541;47.458;9.644;2022-10-17T12:18:47;19.70;77.70
38936;DHT22;25541;47.458;9.644;2022-10-17T12:21:14;19.70;77.90
38936;DHT22;25541;47.458;9.644;2022-10-17T12:23:40;19.90;75.30
38936;DHT22;25541;47.458;9.644;2022-10-17T12:26:07;20.00;76.00
38936;DHT22;25541;47.458;9.644;2022-10-17T12:33:51;19.90;77.30
38936;DHT22;25541;47.458;9.644;2022-10-17T12:38:44;20.10;77.20
38936;DHT22;25541;47.458;9.644;2022-10-17T12:41:11;20.10;77.40
38936;DHT22;25541;47.458;9.644;2022-10-17T12:46:09;20.00;77.30
38936;DHT22;25541;47.458;9.644;2022-10-17T12:56:09;19.80;78.60
38936;DHT22;25541;47.458;9.644;2022-10-17T12:58:35;19.90;78.30
38936;DHT22;25541;47.458;9.644;2022-10-17T13:01:01;19.90;78.50
38936;DHT22;25541;47.458;9.644;2022-10-17T13:03:32;20.00;78.90
38936;DHT22;25541;47.458;9.644;2022-10-17T13:06:01;19.90;79.00
38936;DHT22;25541;47.458;9.644;2022-10-17T13:08:28;19.90;79.50
38936;DHT22;25541;47.458;9.644;2022-10-17T13:10:55;19.90;79.00
38936;DHT22;25541;47.458;9.644;2022-10-17T13:15:59;20.20;78.10
38936;DHT22;25541;47.458;9.644;2022-10-17T13:18:27;20.20;78.30
38936;DHT22;25541;47.458;9.644;2022-10-17T13:20:58;20.20;78.10
38936;DHT22;25541;47.458;9.644;2022-10-17T13:23:29;20.30;78.30
38936;DHT22;25541;47.458;9.644;2022-10-17T13:26:25;20.30;77.90
38936;DHT22;25541;47.458;9.644;2022-10-17T13:31:35;20.10;76.40
38936;DHT22;25541;47.458;9.644;2022-10-17T13:34:04;20.10;77.50
38936;DHT22;25541;47.458;9.644;2022-10-17T13:36:32;20.20;76.80
38936;DHT22;25541;47.458;9.644;2022-10-17T13:39:07;20.30;80.40
38936;DHT22;25541;47.458;9.644;2022-10-17T13:41:34;20.10;78.10
38936;DHT22;25541;47.458;9.644;2022-10-17T13:44:01;20.00;77.60
38936;DHT22;25541;47.458;9.644;2022-10-17T13:46:30;20.00;79.10
38936;DHT22;25541;47.458;9.644;2022-10-17T13:48:58;20.00;79.20
38936;DHT22;25541;47.458;9.644;2022-10-17T13:51:26;19.90;79.70
38936;DHT22;25541;47.458;9.644;2022-10-17T13:53:52;19.90;79.40
38936;DHT22;25541;47.458;9.644;2022-10-17T13:56:21;19.90;79.90
38936;DHT22;25541;47.458;9.644;2022-10-17T13:58:51;20.00;79.20
38936;DHT22;25541;47.458;9.644;2022-10-17T14:01:19;20.00;79.20
38936;DHT22;25541;47.458;9.644;2022-10-17T14:03:46;20.00;79.50
38936;DHT22;25541;47.458;9.644;2022-10-17T14:09:15;20.00;79.00
38936;DHT22;25541;47.458;9.644;2022-10-17T14:11:43;20.00;78.70
38936;DHT22;25541;47.458;9.644;2022-10-17T14:14:21;20.10;76.90
38936;DHT22;25541;47.458;9.644;2022-10-17T14:16:48;20.20;77.40
38936;DHT22;25541;47.458;9.644;2022-10-17T14:21:48;20.20;77.60
38936;DHT22;25541;47.458;9.644;2022-10-17T14:26:53;20.00;75.90
38936;DHT22;25541;47.458;9.644;2022-10-17T14:29:28;20.00;76.70
38936;DHT22;25541;47.458;9.644;2022-10-17T14:32:12;20.00;77.10
38936;DHT22;25541;47.458;9.644;2022-10-17T14:34:39;20.00;78.60
38936;DHT22;25541;47.458;9.644;2022-10-17T14:39:49;20.20;76.70
38936;DHT22;25541;47.458;9.644;2022-10-17T14:42:20;20.20;79.30
38936;DHT22;25541;47.458;9.644;2022-10-17T14:44:48;20.20;77.00
38936;DHT22;25541;47.458;9.644;2022-10-17T14:47:20;20.30;76.90
38936;DHT22;25541;47.458;9.644;2022-10-17T14:49:55;20.30;77.80
38936;DHT22;25541;47.458;9.644;2022-10-17T14:52:28;20.20;77.20
38936;DHT22;25541;47.458;9.644;2022-10-17T14:54:55;20.10;77.20
38936;DHT22;25541;47.458;9.644;2022-10-17T14:57:44;20.10;76.90
38936;DHT22;25541;47.458;9.644;2022-10-17T15:00:15;20.00;77.20
38936;DHT22;25541;47.458;9.644;2022-10-17T15:02:41;20.00;78.10
38936;DHT22;25541;47.458;9.644;2022-10-17T15:05:06;20.00;78.30
38936;DHT22;25541;47.458;9.644;2022-10-17T15:07:32;20.00;78.90
38936;DHT22;25541;47.458;9.644;2022-10-17T15:09:58;20.00;78.50
38936;DHT22;25541;47.458;9.644;2022-10-17T15:12:24;20.10;78.50
38936;DHT22;25541;47.458;9.644;2022-10-17T15:14:50;20.00;79.30
38936;DHT22;25541;47.458;9.644;2022-10-17T15:17:37;20.00;79.20
38936;DHT22;25541;47.458;9.644;2022-10-17T15:20:05;20.10;78.40
38936;DHT22;25541;47.458;9.644;2022-10-17T15:22:36;20.20;78.40
38936;DHT22;25541;47.458;9.644;2022-10-17T15:25:02;20.30;78.10
38936;DHT22;25541;47.458;9.644;2022-10-17T15:27:28;20.30;78.80
38936;DHT22;25541;47.458;9.644;2022-10-17T15:29:55;20.20;78.50
38936;DHT22;25541;47.458;9.644;2022-10-17T15:32:21;20.30;78.90
38936;DHT22;25541;47.458;9.644;2022-10-17T15:34:46;20.30;79.20
38936;DHT22;25541;47.458;9.644;2022-10-17T15:37:23;20.30;80.00
38936;DHT22;25541;47.458;9.644;2022-10-17T15:39:53;20.30;79.30
38936;DHT22;25541;47.458;9.644;2022-10-17T15:42:26;20.30;79.90
38936;DHT22;25541;47.458;9.644;2022-10-17T15:44:53;20.30;79.70
38936;DHT22;25541;47.458;9.644;2022-10-17T15:49:49;20.10;81.10
38936;DHT22;25541;47.458;9.644;2022-10-17T15:52:14;20.10;82.10
38936;DHT22;25541;47.458;9.644;2022-10-17T15:54:40;20.00;81.20
38936;DHT22;25541;47.458;9.644;2022-10-17T15:57:11;20.00;82.10
38936;DHT22;25541;47.458;9.644;2022-10-17T15:59:40;19.90;82.90
38936;DHT22;25541;47.458;9.644;2022-10-17T16:02:12;19.80;84.10
38936;DHT22;25541;47.458;9.644;2022-10-17T16:04:38;19.50;85.10
38936;DHT22;25541;47.458;9.644;2022-10-17T16:07:04;19.50;85.70
38936;DHT22;25541;47.458;9.644;2022-10-17T16:09:30;19.40;85.20
38936;DHT22;25541;47.458;9.644;2022-10-17T16:11:56;19.30;85.40
38936;DHT22;25541;47.458;9.644;2022-10-17T16:14:21;19.20;86.60
38936;DHT22;25541;47.458;9.644;2022-10-17T16:16:47;19.10;87.00
38936;DHT22;25541;47.458;9.644;2022-10-17T16:19:12;19.00;88.70
38936;DHT22;25541;47.458;9.644;2022-10-17T16:21:39;18.70;88.60
38936;DHT22;25541;47.458;9.644;2022-10-17T16:24:08;18.60;89.00
38936;DHT22;25541;47.458;9.644;2022-10-17T16:26:34;18.50;88.20
38936;DHT22;25541;47.458;9.644;2022-10-17T16:29:00;18.40;87.90
38936;DHT22;25541;47.458;9.644;2022-10-17T16:31:30;18.30;88.90
38936;DHT22;25541;47.458;9.644;2022-10-17T16:33:57;18.30;89.60
38936;DHT22;25541;47.458;9.644;2022-10-17T16:36:23;18.10;90.00
38936;DHT22;25541;47.458;9.644;2022-10-17T16:38:50;17.90;91.10
38936;DHT22;25541;47.458;9.644;2022-10-17T16:41:24;17.80;90.50
38936;DHT22;25541;47.458;9.644;2022-10-17T16:43:51;17.60;91.40
38936;DHT22;25541;47.458;9.644;2022-10-17T16:46:18;17.50;91.00
38936;DHT22;25541;47.458;9.644;2022-10-17T16:48:44;17.50;91.10
38936;DHT22;25541;47.458;9.644;2022-10-17T16:51:11;17.40;90.80
38936;DHT22;25541;47.458;9.644;2022-10-17T16:53:38;17.30;93.10
38936;DHT22;25541;47.458;9.644;2022-10-17T16:56:12;18.40;90.30
38936;DHT22;25541;47.458;9.644;2022-10-17T16:58:39;18.10;89.30
38936;DHT22;25541;47.458;9.644;2022-10-17T17:01:08;17.70;90.30
38936;DHT22;25541;47.458;9.644;2022-10-17T17:03:38;17.50;90.90
38936;DHT22;25541;47.458;9.644;2022-10-17T17:06:05;17.30;92.30
38936;DHT22;25541;47.458;9.644;2022-10-17T17:08:32;17.10;92.30
38936;DHT22;25541;47.458;9.644;2022-10-17T17:10:58;17.00;93.10
38936;DHT22;25541;47.458;9.644;2022-10-17T17:13:24;17.00;93.40
38936;DHT22;25541;47.458;9.644;2022-10-17T17:15:50;16.90;93.70
38936;DHT22;25541;47.458;9.644;2022-10-17T17:18:19;16.80;94.10
38936;DHT22;25541;47.458;9.644;2022-10-17T17:20:45;16.80;94.50
38936;DHT22;25541;47.458;9.644;2022-10-17T17:23:12;16.70;95.20
38936;DHT22;25541;47.458;9.644;2022-10-17T17:25:37;16.80;95.30
38936;DHT22;25541;47.458;9.644;2022-10-17T17:28:05;16.80;96.00
38936;DHT22;25541;47.458;9.644;2022-10-17T17:30:34;16.70;96.10
38936;DHT22;25541;47.458;9.644;2022-10-17T17:33:00;16.80;95.90
38936;DHT22;25541;47.458;9.644;2022-10-17T17:35:26;16.70;96.20
38936;DHT22;25541;47.458;9.644;2022-10-17T17:37:52;16.60;96.60
38936;DHT22;25541;47.458;9.644;2022-10-17T17:40:18;16.50;96.60
38936;DHT22;25541;47.458;9.644;2022-10-17T17:42:43;16.50;95.90
38936;DHT22;25541;47.458;9.644;2022-10-17T17:45:09;16.50;95.80
38936;DHT22;25541;47.458;9.644;2022-10-17T17:47:35;16.50;96.70
38936;DHT22;25541;47.458;9.644;2022-10-17T17:50:01;16.40;97.00
38936;DHT22;25541;47.458;9.644;2022-10-17T17:52:28;16.30;96.90
38936;DHT22;25541;47.458;9.644;2022-10-17T17:54:54;16.30;97.00
38936;DHT22;25541;47.458;9.644;2022-10-17T17:57:20;16.20;97.10
38936;DHT22;25541;47.458;9.644;2022-10-17T17:59:46;16.10;97.00
38936;DHT22;25541;47.458;9.644;2022-10-17T18:02:14;16.10;96.60
38936;DHT22;25541;47.458;9.644;2022-10-17T18:04:39;16.10;95.90
38936;DHT22;25541;47.458;9.644;2022-10-17T18:07:05;16.10;95.70
38936;DHT22;25541;47.458;9.644;2022-10-17T18:09:31;16.00;94.90
38936;DHT22;25541;47.458;9.644;2022-10-17T18:11:56;16.00;94.50
38936;DHT22;25541;47.458;9.644;2022-10-17T18:14:22;16.00;94.50
38936;DHT22;25541;47.458;9.644;2022-10-17T18:16:48;16.00;94.10
38936;DHT22;25541;47.458;9.644;2022-10-17T18:19:14;16.00;94.90
38936;DHT22;25541;47.458;9.644;2022-10-17T18:21:40;15.90;95.40
38936;DHT22;25541;47.458;9.644;2022-10-17T18:24:07;15.90;95.20
38936;DHT22;25541;47.458;9.644;2022-10-17T18:26:33;15.90;95.50
38936;DHT22;25541;47.458;9.644;2022-10-17T18:28:58;15.90;95.60
38936;DHT22;25541;47.458;9.644;2022-10-17T18:31:25;15.80;95.50
38936;DHT22;25541;47.458;9.644;2022-10-17T18:33:57;15.90;96.70
38936;DHT22;25541;47.458;9.644;2022-10-17T18:36:25;15.80;97.60
38936;DHT22;25541;47.458;9.644;2022-10-17T18:38:52;15.80;98.40
38936;DHT22;25541;47.458;9.644;2022-10-17T18:41:20;15.70;97.40
38936;DHT22;25541;47.458;9.644;2022-10-17T18:43:47;15.60;97.50
38936;DHT22;25541;47.458;9.644;2022-10-17T18:46:18;15.50;97.60
38936;DHT22;25541;47.458;9.644;2022-10-17T18:48:45;15.50;97.60
38936;DHT22;25541;47.458;9.644;2022-10-17T18:51:13;15.40;98.40
38936;DHT22;25541;47.458;9.644;2022-10-17T18:53:44;15.20;99.50
38936;DHT22;25541;47.458;9.644;2022-10-17T18:56:11;15.20;98.80
38936;DHT22;25541;47.458;9.644;2022-10-17T18:58:37;15.10;98.50
38936;DHT22;25541;47.458;9.644;2022-10-17T19:01:06;15.10;97.70
38936;DHT22;25541;47.458;9.644;2022-10-17T19:03:32;14.90;98.10
38936;DHT22;25541;47.458;9.644;2022-10-17T19:06:06;14.80;98.70
38936;DHT22;25541;47.458;9.644;2022-10-17T19:08:33;14.90;98.40
38936;DHT22;25541;47.458;9.644;2022-10-17T19:11:26;14.90;98.30
38936;DHT22;25541;47.458;9.644;2022-10-17T19:13:52;14.90;98.20
38936;DHT22;25541;47.458;9.644;2022-10-17T19:16:26;14.90;98.00
38936;DHT22;25541;47.458;9.644;2022-10-17T19:18:55;14.80;99.20
38936;DHT22;25541;47.458;9.644;2022-10-17T19:21:22;14.80;99.00
38936;DHT22;25541;47.458;9.644;2022-10-17T19:23:50;14.80;99.20
38936;DHT22;25541;47.458;9.644;2022-10-17T19:26:16;14.80;99.90
38936;DHT22;25541;47.458;9.644;2022-10-17T19:28:43;14.80;99.90
38936;DHT22;25541;47.458;9.644;2022-10-17T19:31:09;14.90;99.70
38936;DHT22;25541;47.458;9.644;2022-10-17T19:33:35;14.90;99.30
38936;DHT22;25541;47.458;9.644;2022-10-17T19:36:07;14.80;99.70
38936;DHT22;25541;47.458;9.644;2022-10-17T19:38:35;14.60;99.90
38936;DHT22;25541;47.458;9.644;2022-10-17T19:41:05;14.60;99.90
38936;DHT22;25541;47.458;9.644;2022-10-17T19:43:31;14.40;99.90
38936;DHT22;25541;47.458;9.644;2022-10-17T19:46:02;14.30;99.90
38936;DHT22;25541;47.458;9.644;2022-10-17T19:48:31;14.30;99.90
38936;DHT22;25541;47.458;9.644;2022-10-17T19:50:57;14.30;99.90
38936;DHT22;25541;47.458;9.644;2022-10-17T19:53:23;14.30;99.90
38936;DHT22;25541;47.458;9.644;2022-10-17T19:55:50;14.30;99.90
38936;DHT22;25541;47.458;9.644;2022-10-17T19:58:16;14.30;99.90